La Union, Spain
Current Conditions -  °F | °C
As of 8:00 PM on Thursday 23 Oct 2014 (Local Time) from LELC Reporting Station
Clear Clear  
Wind Chill: 70°   Ceiling: Unl
Heat Index: 70°   Visibility: 6mi
Dew Point: 61°   Wind: 10mph
Humidity: 73%   Direction: 210°SSW
Pressure: 30.06"   Gusts: NA
Location:  37.62°N, 0.88°W
Report Text: LELC 231800Z 21009KT 190V250 CAVOK 21/16 Q1018 NOSIG
Loading
Personal Weather Stations






























Interactive Weather Map
Tropical Storm Tracking
New forecast layout! Learn more

10-Day Weather Forecast

Advertisements
Track Severe Weather on mobile